PRG weather

Václav Havel Airport Prague
Prague, Prague (capital city), Czechia

Public forecast

Using degrees Celsius for public forecast. Weather courtesy of forecast.io.

METAR (pilot weather report)

Retrieved 2018/07/20 01:30 UTC (20 minutes ago):

LKPR 200130Z 24005KT 220V290 CAVOK 13/11 Q1017 NOSIG

TAF (pilot weather forecast)

Forecast is more than 6 hours old.

Retrieved 2018/07/19 18:12 UTC (8 hours ago):

TAF LKPR 191700Z 1918/2100 33010KT CAVOK BECMG 1919/1921 VRB02KT BECMG 2009/2011 33010KT TEMPO 2014/2017 35012G22KT